»·PEaware :: N335AK KBNO-KSAC

N335AK :: KBNO-KSAC

FLIGHT INFORMATION

Flight Status: Arrived
Operator: Privately registered:
United States
More flights under this callsign
Pilot: Gabor H. (24209)
Aircraft: Unknown
(EPIC)
More flights by this aircraft type
Origin: KBNO Burns Mun
United States
Destination: KSAC Sacramento Executive
United States
More flights between these airports :: More routes between these airports
Route: ILR V497 REO J7 FMG V6 SAC
File this flight plan on PilotEdge
Remarks:
Altitude:
(Current/Filed)
32,000ft
Speed:
(Current/Filed)
325kts
Departed: 11-Nov-20 10:49 AM
Arrived: 11-Nov-20 12:17 PM
Distance/Time
Traveled:
326nm/1:28
Distance/Time
To Go:
Arrived

Flight Plot

Page will automatically refresh every two minutes.

Flight plan parsing failed; only flown route is shown


Map Options




Map Legend


Flown Route
Filed Route
Departure Airport
Arrival Airport
Navaid (VOR, NDB)
Fix

Horizontal Profiles

Position Reports

Time Latitude Longitude Heading Altitude Ground
Speed
11-Nov-20 10:39 43.586647 -118.955169 91 4149ft 0kts
11-Nov-20 10:40 43.586647 -118.955169 91 4149ft 0kts
11-Nov-20 10:41 43.586647 -118.955169 91 4149ft 0kts
11-Nov-20 10:42 43.586647 -118.955169 91 4149ft 0kts
11-Nov-20 10:43 43.586647 -118.955169 91 4149ft 0kts
11-Nov-20 10:44 43.586973 -118.955515 319 4149ft 9kts
11-Nov-20 10:45 43.587654 -118.959448 39 4149ft 14kts
11-Nov-20 10:46 43.593808 -118.950157 52 4148ft 29kts
11-Nov-20 10:47 43.595593 -118.947460 229 4147ft 0kts
11-Nov-20 10:48 43.591356 -118.953994 228 4244ft 113kts
11-Nov-20 10:50 43.558488 -118.955210 103 6475ft 194kts
11-Nov-20 10:51 43.534599 -118.889396 146 8612ft 228kts
11-Nov-20 10:52 43.482503 -118.832766 141 11086ft 249kts
11-Nov-20 10:53 43.427114 -118.771750 140 13677ft 264kts
11-Nov-20 10:54 43.368418 -118.707283 140 16165ft 278kts
11-Nov-20 10:55 43.306491 -118.639446 141 18489ft 292kts
11-Nov-20 10:56 43.241723 -118.568699 141 20406ft 304kts
11-Nov-20 10:57 43.174385 -118.495309 142 21992ft 315kts
11-Nov-20 10:58 43.105008 -118.419957 142 23304ft 323kts
11-Nov-20 10:59 43.033952 -118.343010 143 24402ft 330kts
11-Nov-20 11:00 42.960917 -118.264148 145 25276ft 338kts
11-Nov-20 11:01 42.886949 -118.184539 146 26230ft 338kts
11-Nov-20 11:02 42.813304 -118.105566 147 27200ft 336kts
11-Nov-20 11:03 42.740116 -118.027288 147 28176ft 333kts
11-Nov-20 11:04 42.667569 -117.949941 148 29158ft 330kts
11-Nov-20 11:05 42.592923 -117.883793 185 30155ft 296kts
11-Nov-20 11:06 42.521751 -117.910680 217 31163ft 258kts
11-Nov-20 11:07 42.456976 -117.950087 218 32091ft 255kts
11-Nov-20 11:08 42.389011 -117.991729 217 32114ft 280kts
11-Nov-20 11:09 42.316274 -118.036099 216 32120ft 292kts
11-Nov-20 11:09 42.254050 -118.073978 216 32120ft 297kts
11-Nov-20 11:11 42.165576 -118.127696 216 32120ft 300kts
11-Nov-20 11:11 42.102278 -118.166036 216 32118ft 299kts
11-Nov-20 11:12 42.026468 -118.211842 216 32119ft 300kts
11-Nov-20 11:13 41.950324 -118.257727 216 32119ft 301kts
11-Nov-20 11:14 41.874050 -118.303566 216 32113ft 301kts
11-Nov-20 11:15 41.797826 -118.349254 216 32111ft 300kts
11-Nov-20 11:16 41.721758 -118.394731 216 32118ft 300kts
11-Nov-20 11:17 41.645452 -118.440238 216 32136ft 299kts
11-Nov-20 11:18 41.569542 -118.485389 216 32148ft 299kts
11-Nov-20 11:19 41.493414 -118.530546 216 32148ft 299kts
11-Nov-20 11:20 41.417498 -118.575470 216 32148ft 299kts
11-Nov-20 11:21 41.341529 -118.620303 216 32147ft 299kts
11-Nov-20 11:22 41.265366 -118.665139 216 32160ft 300kts
11-Nov-20 11:23 41.188729 -118.710139 215 32161ft 302kts
11-Nov-20 11:24 41.111692 -118.755258 215 32161ft 303kts
11-Nov-20 11:25 41.034767 -118.800181 216 32165ft 302kts
11-Nov-20 11:26 40.958042 -118.844879 216 32169ft 299kts
11-Nov-20 11:27 40.882306 -118.888906 216 32164ft 296kts
11-Nov-20 11:28 40.807526 -118.932257 216 32162ft 293kts
11-Nov-20 11:29 40.733059 -118.975330 216 32166ft 291kts
11-Nov-20 11:30 40.659193 -119.017931 217 32161ft 290kts
11-Nov-20 11:31 40.585644 -119.060267 217 32161ft 288kts
11-Nov-20 11:32 40.512340 -119.102346 217 32163ft 288kts
11-Nov-20 11:33 40.439161 -119.144246 217 32164ft 288kts
11-Nov-20 11:34 40.365728 -119.186208 217 32159ft 287kts
11-Nov-20 11:35 40.292617 -119.227875 217 32163ft 287kts
11-Nov-20 11:36 40.219425 -119.269495 217 32162ft 287kts
11-Nov-20 11:37 40.146121 -119.311072 217 32161ft 287kts
11-Nov-20 11:38 40.072878 -119.352531 217 32160ft 287kts
11-Nov-20 11:39 39.999806 -119.393785 217 32161ft 286kts
11-Nov-20 11:40 39.926503 -119.435072 217 32157ft 286kts
11-Nov-20 11:41 39.853435 -119.476126 217 32155ft 286kts
11-Nov-20 11:42 39.780460 -119.517037 217 32155ft 286kts
11-Nov-20 11:43 39.707475 -119.557868 217 32153ft 285kts
11-Nov-20 11:44 39.634462 -119.598614 217 32155ft 285kts
11-Nov-20 11:45 39.561557 -119.639214 217 32156ft 285kts
11-Nov-20 11:46 39.506150 -119.701069 242 31589ft 273kts
11-Nov-20 11:47 39.458242 -119.784759 241 30043ft 302kts
11-Nov-20 11:48 39.407089 -119.874534 241 28466ft 316kts
11-Nov-20 11:49 39.354203 -119.967109 240 26774ft 324kts
11-Nov-20 11:50 39.300206 -120.061369 239 25031ft 330kts
11-Nov-20 11:51 39.244802 -120.157787 239 23033ft 339kts
11-Nov-20 11:52 39.188681 -120.255145 238 21023ft 334kts
11-Nov-20 11:53 39.134575 -120.350755 238 19011ft 328kts
11-Nov-20 11:54 39.081167 -120.445207 238 16991ft 324kts
11-Nov-20 11:55 39.028103 -120.538779 237 14974ft 322kts
11-Nov-20 11:56 38.977492 -120.627748 237 13487ft 300kts
11-Nov-20 11:57 38.927925 -120.714659 235 12195ft 304kts
11-Nov-20 11:58 38.878473 -120.801095 235 11987ft 298kts
11-Nov-20 11:59 38.829028 -120.887317 235 11986ft 299kts
11-Nov-20 12:00 38.779493 -120.973474 235 11987ft 301kts
11-Nov-20 12:01 38.731693 -121.056427 234 10536ft 278kts
11-Nov-20 12:02 38.686554 -121.134538 234 9028ft 269kts
11-Nov-20 12:03 38.642075 -121.211348 234 7520ft 267kts
11-Nov-20 12:04 38.581238 -121.265884 213 6021ft 268kts
11-Nov-20 12:05 38.519486 -121.317306 213 4512ft 254kts
11-Nov-20 12:06 38.465220 -121.362616 213 4004ft 209kts
11-Nov-20 12:07 38.415797 -121.403820 213 4015ft 214kts
11-Nov-20 12:08 38.365470 -121.445829 213 4020ft 222kts
11-Nov-20 12:09 38.313980 -121.491190 243 3994ft 225kts
11-Nov-20 12:10 38.329375 -121.564657 294 4004ft 221kts
11-Nov-20 12:11 38.372914 -121.598089 4 2550ft 200kts
11-Nov-20 12:12 38.420267 -121.571064 31 1993ft 184kts
11-Nov-20 12:13 38.461002 -121.537307 30 1095ft 137kts
11-Nov-20 12:14 38.484552 -121.517851 29 559ft 95kts
11-Nov-20 12:15 38.506082 -121.499971 30 25ft 78kts
11-Nov-20 12:16 38.511356 -121.496824 271 22ft 0kts
11-Nov-20 12:17 38.513341 -121.495963 313 24ft 11kts
11-Nov-20 12:18 38.514881 -121.498450 222 23ft 0kts

Navigation Log

Ident Type
Flight plan parsing failed, navigation log unavailable